createdAt,value
2017-03-18T00:00:05.166Z,4.00
2017-03-18T00:01:05.936Z,5.00
2017-03-18T00:02:06.700Z,6.00
2017-03-18T00:03:07.466Z,5.00
2017-03-18T00:04:08.231Z,5.00
2017-03-18T00:05:09.244Z,7.00
2017-03-18T00:06:10.014Z,7.00
2017-03-18T00:07:10.778Z,5.00
2017-03-18T00:08:11.540Z,8.00
2017-03-18T00:09:12.304Z,5.00
2017-03-18T00:10:13.366Z,9.00
2017-03-18T00:11:14.132Z,8.00
2017-03-18T00:12:14.896Z,7.00
2017-03-18T00:13:15.660Z,6.00
2017-03-18T00:14:16.424Z,7.00
2017-03-18T00:15:17.437Z,4.00
2017-03-18T00:16:18.201Z,9.00
2017-03-18T00:17:18.969Z,9.00
2017-03-18T00:18:19.732Z,8.00
2017-03-18T00:19:20.498Z,14.00
2017-03-18T00:20:21.509Z,6.00
2017-03-18T00:21:22.273Z,8.00
2017-03-18T00:22:23.038Z,6.00
2017-03-18T00:23:23.803Z,10.00
2017-03-18T00:24:24.570Z,12.00
2017-03-18T00:25:25.582Z,8.00
2017-03-18T00:26:26.347Z,8.00
2017-03-18T00:27:27.111Z,9.00
2017-03-18T00:28:27.873Z,8.00
2017-03-18T00:29:28.638Z,6.00
2017-03-18T00:30:29.656Z,11.00
2017-03-18T00:31:30.419Z,9.00
2017-03-18T00:32:31.188Z,7.00
2017-03-18T00:33:31.953Z,10.00
2017-03-18T00:34:32.719Z,10.00
2017-03-18T00:35:33.732Z,10.00
2017-03-18T00:36:34.496Z,10.00
2017-03-18T00:37:35.262Z,12.00
2017-03-18T00:38:36.030Z,12.00
2017-03-18T00:39:36.793Z,11.00
2017-03-18T00:40:37.812Z,12.00
2017-03-18T00:41:38.575Z,10.00
2017-03-18T00:42:39.337Z,9.00
2017-03-18T00:43:40.103Z,8.00
2017-03-18T00:44:40.872Z,12.00
2017-03-18T00:45:41.886Z,10.00
2017-03-18T00:46:42.650Z,10.00
2017-03-18T00:47:43.419Z,12.00
2017-03-18T00:48:44.182Z,10.00
2017-03-18T00:49:44.949Z,11.00
2017-03-18T00:50:45.965Z,10.00
2017-03-18T00:51:46.916Z,12.00
2017-03-18T00:52:47.680Z,12.00
2017-03-18T00:53:48.445Z,11.00
2017-03-18T00:54:49.209Z,12.00
2017-03-18T00:55:50.229Z,10.00
2017-03-18T00:56:50.995Z,11.00
2017-03-18T00:57:51.762Z,13.00
2017-03-18T00:58:52.564Z,14.00
2017-03-18T00:59:53.376Z,11.00
2017-03-18T01:00:54.392Z,11.00
2017-03-18T01:01:55.161Z,8.00
2017-03-18T01:02:55.922Z,14.00
2017-03-18T01:03:56.686Z,12.00
2017-03-18T01:04:57.454Z,13.00
2017-03-18T01:05:58.466Z,8.00
2017-03-18T01:06:59.230Z,7.00
2017-03-18T01:07:59.997Z,8.00
2017-03-18T01:09:00.766Z,14.00
2017-03-18T01:10:01.530Z,16.00
2017-03-18T01:11:02.548Z,17.00
2017-03-18T01:12:03.315Z,17.00
2017-03-18T01:13:04.075Z,12.00
2017-03-18T01:14:04.839Z,18.00
2017-03-18T01:15:05.603Z,17.00
2017-03-18T01:16:06.619Z,19.00
2017-03-18T01:17:07.381Z,15.00
2017-03-18T01:18:08.144Z,15.00
2017-03-18T01:19:08.909Z,17.00
2017-03-18T01:20:09.674Z,18.00
2017-03-18T01:21:10.687Z,19.00
2017-03-18T01:22:11.454Z,20.00
2017-03-18T01:23:12.218Z,19.00
2017-03-18T01:24:12.986Z,20.00
2017-03-18T01:25:13.752Z,20.00
2017-03-18T01:26:14.768Z,19.00
2017-03-18T01:27:15.532Z,18.00
2017-03-18T01:28:16.297Z,23.00
2017-03-18T01:29:17.063Z,21.00
2017-03-18T01:30:17.825Z,20.00
2017-03-18T01:31:18.845Z,13.00
2017-03-18T01:32:19.607Z,20.00
2017-03-18T01:33:20.377Z,18.00
2017-03-18T01:34:21.141Z,18.00
2017-03-18T01:35:21.904Z,24.00
2017-03-18T01:36:22.920Z,20.00
2017-03-18T01:37:23.685Z,19.00
2017-03-18T01:38:24.449Z,11.00
2017-03-18T01:39:25.215Z,25.00
2017-03-18T01:40:25.977Z,16.00
2017-03-18T01:41:26.992Z,17.00
2017-03-18T01:42:27.761Z,16.00
2017-03-18T01:43:28.527Z,22.00
2017-03-18T01:44:29.295Z,10.00
2017-03-18T01:45:30.058Z,19.00
2017-03-18T01:46:31.073Z,22.00
2017-03-18T01:47:31.837Z,21.00
2017-03-18T01:48:32.786Z,21.00
2017-03-18T01:49:33.549Z,18.00
2017-03-18T01:50:34.313Z,23.00
2017-03-18T01:51:35.331Z,27.00
2017-03-18T01:52:36.096Z,15.00
2017-03-18T01:53:36.861Z,19.00
2017-03-18T01:54:37.629Z,23.00
2017-03-18T01:55:38.394Z,22.00
2017-03-18T01:56:39.415Z,19.00
2017-03-18T01:57:40.179Z,21.00
2017-03-18T01:58:40.944Z,22.00
2017-03-18T01:59:41.707Z,25.00
2017-03-18T02:00:42.474Z,24.00
2017-03-18T02:01:43.491Z,10.00
2017-03-18T02:02:44.255Z,15.00
2017-03-18T02:03:45.018Z,25.00
2017-03-18T02:04:45.787Z,21.00
2017-03-18T02:05:46.740Z,13.00
2017-03-18T02:06:47.756Z,13.00
2017-03-18T02:07:48.524Z,19.00
2017-03-18T02:08:49.286Z,14.00
2017-03-18T02:09:50.049Z,25.00
2017-03-18T02:10:50.818Z,17.00
2017-03-18T02:11:51.833Z,16.00
2017-03-18T02:12:52.597Z,17.00
2017-03-18T02:13:53.361Z,14.00
2017-03-18T02:14:54.129Z,12.00
2017-03-18T02:15:54.897Z,17.00
2017-03-18T02:16:55.911Z,17.00
2017-03-18T02:17:56.673Z,20.00
2017-03-18T02:18:57.438Z,17.00
2017-03-18T02:19:58.206Z,13.00
2017-03-18T02:20:58.967Z,21.00
2017-03-18T02:21:59.984Z,17.00
2017-03-18T02:23:00.751Z,19.00
2017-03-18T02:24:01.519Z,15.00
2017-03-18T02:25:02.284Z,14.00
2017-03-18T02:26:03.048Z,10.00
2017-03-18T02:27:04.066Z,12.00
2017-03-18T02:28:04.832Z,12.00
2017-03-18T02:29:05.596Z,15.00
2017-03-18T02:30:06.363Z,17.00
2017-03-18T02:31:07.126Z,6.00
2017-03-18T02:32:08.142Z,13.00
2017-03-18T02:33:08.906Z,8.00
2017-03-18T02:34:09.670Z,17.00
2017-03-18T02:35:10.437Z,18.00
2017-03-18T02:36:11.206Z,15.00
2017-03-18T02:37:12.221Z,13.00
2017-03-18T02:38:13.174Z,11.00
2017-03-18T02:39:13.939Z,15.00
2017-03-18T02:40:14.706Z,14.00
2017-03-18T02:41:15.472Z,12.00
2017-03-18T02:42:16.489Z,11.00
2017-03-18T02:43:17.254Z,14.00
2017-03-18T02:44:18.019Z,10.00
2017-03-18T02:45:18.789Z,11.00
2017-03-18T02:46:19.550Z,9.00
2017-03-18T02:47:20.564Z,11.00
2017-03-18T02:48:21.330Z,7.00
2017-03-18T02:49:22.095Z,11.00
2017-03-18T02:50:23.046Z,4.00
2017-03-18T02:51:23.812Z,8.00
2017-03-18T02:52:24.829Z,9.00
2017-03-18T02:53:25.591Z,6.00
2017-03-18T02:54:26.360Z,7.00
2017-03-18T02:55:27.126Z,10.00
2017-03-18T02:56:27.896Z,8.00
2017-03-18T02:57:28.910Z,8.00
2017-03-18T02:58:29.678Z,7.00
2017-03-18T02:59:30.445Z,5.00
2017-03-18T03:00:31.209Z,9.00
2017-03-18T03:01:31.975Z,6.00
2017-03-18T03:02:32.986Z,5.00
2017-03-18T03:03:33.748Z,5.00
2017-03-18T03:04:34.512Z,5.00
2017-03-18T03:05:35.277Z,5.00
2017-03-18T03:06:36.040Z,5.00
2017-03-18T03:07:37.105Z,2.00
2017-03-18T03:08:37.869Z,5.00
2017-03-18T03:09:38.635Z,6.00
2017-03-18T03:10:39.646Z,7.00
2017-03-18T03:11:40.413Z,7.00
2017-03-18T03:12:41.173Z,4.00
2017-03-18T03:13:41.938Z,4.00
2017-03-18T03:14:42.700Z,6.00
2017-03-18T03:15:43.715Z,4.00
2017-03-18T03:16:44.481Z,7.00
2017-03-18T03:17:45.440Z,6.00
2017-03-18T03:18:46.198Z,6.00
2017-03-18T03:19:46.963Z,5.00
2017-03-18T03:20:48.169Z,4.00
2017-03-18T03:21:48.935Z,4.00
2017-03-18T03:22:49.699Z,6.00
2017-03-18T03:23:50.465Z,6.00
2017-03-18T03:24:51.232Z,8.00
2017-03-18T03:25:52.295Z,6.00
2017-03-18T03:26:53.065Z,5.00
2017-03-18T03:27:53.823Z,7.00
2017-03-18T03:28:54.589Z,9.00
2017-03-18T03:29:55.353Z,6.00
2017-03-18T03:30:56.415Z,5.00
2017-03-18T03:31:57.176Z,4.00
2017-03-18T03:32:57.942Z,6.00
2017-03-18T03:33:58.710Z,6.00
2017-03-18T03:34:59.468Z,6.00
2017-03-18T03:36:00.483Z,6.00
2017-03-18T03:37:01.253Z,4.00
2017-03-18T03:38:02.015Z,5.00
2017-03-18T03:39:02.775Z,5.00
2017-03-18T03:40:03.539Z,6.00
2017-03-18T03:41:04.551Z,4.00
2017-03-18T03:42:05.316Z,6.00
2017-03-18T03:43:06.082Z,7.00
2017-03-18T03:44:06.846Z,4.00
2017-03-18T03:45:07.608Z,3.00
2017-03-18T03:46:08.620Z,4.00
2017-03-18T03:47:09.386Z,3.00
2017-03-18T03:48:10.154Z,4.00
2017-03-18T03:49:10.914Z,6.00
2017-03-18T03:50:11.680Z,7.00
2017-03-18T03:51:12.691Z,5.00
2017-03-18T03:52:13.454Z,5.00
2017-03-18T03:53:14.221Z,4.00
2017-03-18T03:54:14.983Z,5.00
2017-03-18T03:55:15.750Z,5.00
2017-03-18T03:56:16.763Z,8.00
2017-03-18T03:57:17.529Z,5.00
2017-03-18T03:58:18.294Z,7.00
2017-03-18T03:59:19.057Z,7.00
2017-03-18T04:00:19.820Z,6.00
2017-03-18T04:01:20.832Z,6.00
2017-03-18T04:02:21.593Z,6.00
2017-03-18T04:03:22.360Z,9.00
2017-03-18T04:04:23.128Z,6.00
2017-03-18T04:05:23.894Z,5.00
2017-03-18T04:06:24.903Z,5.00
2017-03-18T04:07:25.666Z,3.00
2017-03-18T04:08:26.429Z,6.00
2017-03-18T04:09:27.257Z,5.00
2017-03-18T04:10:27.988Z,3.00
2017-03-18T04:11:29.006Z,4.00
2017-03-18T04:12:29.770Z,5.00
2017-03-18T04:13:30.536Z,5.00
2017-03-18T04:14:31.300Z,6.00
2017-03-18T04:15:32.065Z,6.00
2017-03-18T04:16:33.080Z,4.00
2017-03-18T04:17:33.847Z,5.00
2017-03-18T04:18:34.610Z,4.00
2017-03-18T04:19:35.375Z,7.00
2017-03-18T04:20:36.138Z,6.00
2017-03-18T04:21:37.151Z,6.00
2017-03-18T04:22:37.915Z,4.00
2017-03-18T04:23:38.677Z,5.00
2017-03-18T04:24:39.444Z,4.00
2017-03-18T04:25:40.210Z,3.00
2017-03-18T04:26:41.223Z,4.00
2017-03-18T04:27:41.985Z,5.00
2017-03-18T04:28:42.749Z,4.00
2017-03-18T04:29:43.512Z,5.00
2017-03-18T04:30:44.276Z,5.00
2017-03-18T04:31:45.292Z,5.00
2017-03-18T04:32:46.059Z,4.00
2017-03-18T04:33:46.824Z,5.00
2017-03-18T04:34:47.588Z,4.00
2017-03-18T04:35:48.352Z,4.00
2017-03-18T04:36:49.362Z,3.00
2017-03-18T04:37:50.124Z,5.00
2017-03-18T04:38:50.888Z,4.00
2017-03-18T04:39:51.655Z,6.00
2017-03-18T04:40:52.420Z,3.00
2017-03-18T04:41:53.438Z,6.00
2017-03-18T04:42:54.205Z,5.00
2017-03-18T04:43:54.965Z,4.00
2017-03-18T04:44:55.729Z,4.00
2017-03-18T04:45:56.493Z,3.00
2017-03-18T04:46:57.510Z,3.00
2017-03-18T04:47:58.280Z,3.00
2017-03-18T04:48:59.040Z,4.00
2017-03-18T04:49:59.990Z,4.00
2017-03-18T04:51:00.753Z,2.00
2017-03-18T04:52:01.767Z,4.00
2017-03-18T04:53:02.531Z,3.00
2017-03-18T04:54:03.478Z,4.00
2017-03-18T04:55:04.241Z,4.00
2017-03-18T04:56:05.008Z,3.00
2017-03-18T04:57:06.019Z,3.00
2017-03-18T04:58:06.783Z,3.00
2017-03-18T04:59:07.549Z,4.00
2017-03-18T05:00:08.309Z,4.00
2017-03-18T05:01:09.074Z,3.00
2017-03-18T05:02:10.086Z,5.00
2017-03-18T05:03:10.851Z,4.00
2017-03-18T05:04:11.618Z,3.00
2017-03-18T05:05:12.383Z,4.00
2017-03-18T05:06:13.147Z,5.00
2017-03-18T05:07:14.160Z,4.00
2017-03-18T05:08:14.923Z,3.00
2017-03-18T05:09:15.687Z,2.00
2017-03-18T05:10:16.450Z,6.00
2017-03-18T05:11:17.211Z,4.00
2017-03-18T05:12:18.229Z,5.00
2017-03-18T05:13:18.994Z,4.00
2017-03-18T05:14:19.756Z,4.00
2017-03-18T05:15:20.521Z,4.00
2017-03-18T05:16:21.287Z,5.00
2017-03-18T05:17:22.303Z,5.00
2017-03-18T05:18:23.071Z,6.00
2017-03-18T05:19:23.833Z,4.00
2017-03-18T05:20:24.599Z,5.00
2017-03-18T05:21:25.363Z,4.00
2017-03-18T05:22:26.378Z,6.00
2017-03-18T05:23:27.144Z,4.00
2017-03-18T05:24:27.914Z,5.00
2017-03-18T05:25:28.679Z,5.00
2017-03-18T05:26:29.445Z,6.00
2017-03-18T05:27:30.510Z,5.00
2017-03-18T05:28:31.274Z,5.00
2017-03-18T05:29:32.042Z,4.00
2017-03-18T05:30:32.811Z,5.00
2017-03-18T05:31:33.576Z,6.00
2017-03-18T05:32:34.591Z,5.00
2017-03-18T05:33:35.356Z,5.00
2017-03-18T05:34:36.126Z,7.00
2017-03-18T05:35:36.893Z,5.00
2017-03-18T05:36:37.659Z,3.00
2017-03-18T05:37:38.675Z,3.00
2017-03-18T05:38:39.441Z,4.00
2017-03-18T05:39:40.206Z,4.00
2017-03-18T05:40:40.972Z,4.00
2017-03-18T05:41:41.735Z,3.00
2017-03-18T05:42:42.752Z,3.00
2017-03-18T05:43:43.519Z,4.00
2017-03-18T05:44:44.284Z,5.00
2017-03-18T05:45:45.052Z,4.00
2017-03-18T05:46:45.819Z,5.00
2017-03-18T05:47:46.831Z,6.00
2017-03-18T05:48:47.603Z,6.00
2017-03-18T05:49:48.365Z,5.00
2017-03-18T05:50:49.131Z,4.00
2017-03-18T05:51:49.898Z,3.00
2017-03-18T05:52:50.915Z,4.00
2017-03-18T05:53:51.684Z,6.00
2017-03-18T05:54:52.453Z,6.00
2017-03-18T05:55:53.221Z,6.00
2017-03-18T05:56:53.989Z,4.00
2017-03-18T05:57:55.006Z,4.00
2017-03-18T05:58:55.768Z,4.00
2017-03-18T05:59:56.535Z,5.00
2017-03-18T06:00:57.302Z,7.00
2017-03-18T06:01:58.071Z,7.00
2017-03-18T06:02:59.090Z,7.00
2017-03-18T06:03:59.860Z,5.00
2017-03-18T06:05:00.627Z,8.00
2017-03-18T06:06:01.394Z,6.00
2017-03-18T06:07:02.162Z,8.00
2017-03-18T06:08:03.179Z,5.00
2017-03-18T06:09:03.949Z,6.00
2017-03-18T06:10:04.714Z,5.00
2017-03-18T06:11:05.485Z,7.00
2017-03-18T06:12:06.253Z,8.00
2017-03-18T06:13:07.456Z,4.00
2017-03-18T06:14:08.223Z,4.00
2017-03-18T06:15:08.991Z,6.00
2017-03-18T06:16:09.758Z,7.00
2017-03-18T06:17:10.524Z,6.00
2017-03-18T06:18:11.545Z,8.00
2017-03-18T06:19:12.314Z,7.00
2017-03-18T06:20:13.082Z,7.00
2017-03-18T06:21:13.853Z,6.00
2017-03-18T06:22:14.624Z,5.00
2017-03-18T06:23:15.645Z,5.00
2017-03-18T06:24:16.411Z,5.00
2017-03-18T06:25:17.180Z,4.00
2017-03-18T06:26:17.951Z,7.00
2017-03-18T06:27:18.722Z,4.00
2017-03-18T06:28:19.790Z,7.00
2017-03-18T06:29:20.561Z,7.00
2017-03-18T06:30:21.332Z,5.00
2017-03-18T06:31:22.098Z,7.00
2017-03-18T06:32:22.867Z,7.00
2017-03-18T06:33:23.892Z,7.00
2017-03-18T06:34:24.662Z,7.00
2017-03-18T06:35:25.430Z,7.00
2017-03-18T06:36:26.203Z,6.00
2017-03-18T06:37:26.973Z,9.00
2017-03-18T06:38:27.994Z,7.00
2017-03-18T06:39:28.768Z,8.00
2017-03-18T06:40:29.539Z,8.00
2017-03-18T06:41:30.312Z,4.00
2017-03-18T06:42:31.082Z,5.00
2017-03-18T06:43:32.103Z,7.00
2017-03-18T06:44:32.875Z,7.00
2017-03-18T06:45:33.647Z,8.00
2017-03-18T06:46:34.416Z,8.00
2017-03-18T06:47:35.186Z,6.00
2017-03-18T06:48:36.204Z,4.00
2017-03-18T06:49:36.971Z,6.00
2017-03-18T06:50:37.740Z,6.00
2017-03-18T06:51:38.509Z,6.00
2017-03-18T06:52:39.279Z,4.00
2017-03-18T06:53:40.302Z,7.00
2017-03-18T06:54:41.076Z,4.00
2017-03-18T06:55:41.843Z,6.00
2017-03-18T06:56:42.615Z,7.00
2017-03-18T06:57:43.387Z,4.00
2017-03-18T06:58:44.408Z,5.00
2017-03-18T06:59:45.179Z,5.00
2017-03-18T07:00:45.948Z,6.00
2017-03-18T07:01:46.722Z,7.00
2017-03-18T07:02:47.491Z,6.00
2017-03-18T07:03:48.513Z,6.00
2017-03-18T07:04:49.279Z,5.00
2017-03-18T07:05:50.048Z,6.00
2017-03-18T07:06:50.819Z,7.00
2017-03-18T07:07:51.591Z,6.00
2017-03-18T07:08:52.615Z,7.00
2017-03-18T07:09:53.383Z,5.00
2017-03-18T07:10:54.153Z,4.00
2017-03-18T07:11:54.923Z,8.00
2017-03-18T07:12:55.696Z,4.00
2017-03-18T07:13:56.715Z,5.00
2017-03-18T07:14:57.483Z,5.00
2017-03-18T07:15:58.257Z,6.00
2017-03-18T07:16:59.027Z,5.00
2017-03-18T07:17:59.800Z,6.00
2017-03-18T07:19:00.819Z,6.00
2017-03-18T07:20:01.592Z,5.00
2017-03-18T07:21:02.360Z,6.00
2017-03-18T07:22:03.133Z,5.00
2017-03-18T07:23:03.905Z,5.00
2017-03-18T07:24:04.977Z,5.00
2017-03-18T07:25:05.747Z,6.00
2017-03-18T07:26:06.521Z,6.00
2017-03-18T07:27:07.289Z,6.00
2017-03-18T07:28:08.063Z,7.00
2017-03-18T07:29:09.079Z,4.00
2017-03-18T07:30:09.849Z,4.00
2017-03-18T07:31:10.622Z,4.00
2017-03-18T07:32:11.391Z,5.00
2017-03-18T07:33:12.166Z,7.00
2017-03-18T07:34:13.185Z,5.00
2017-03-18T07:35:13.961Z,5.00
2017-03-18T07:36:14.732Z,3.00
2017-03-18T07:37:15.507Z,4.00
2017-03-18T07:38:16.274Z,5.00
2017-03-18T07:39:17.347Z,4.00
2017-03-18T07:40:18.122Z,5.00
2017-03-18T07:41:18.892Z,5.00
2017-03-18T07:42:19.663Z,5.00
2017-03-18T07:43:20.433Z,5.00
2017-03-18T07:44:21.454Z,6.00
2017-03-18T07:45:22.228Z,4.00
2017-03-18T07:46:23.002Z,6.00
2017-03-18T07:47:23.776Z,5.00
2017-03-18T07:48:24.547Z,4.00
2017-03-18T07:49:25.618Z,5.00
2017-03-18T07:50:26.390Z,6.00
2017-03-18T07:51:27.163Z,6.00
2017-03-18T07:52:27.932Z,5.00
2017-03-18T07:53:28.704Z,7.00
2017-03-18T07:54:29.726Z,4.00
2017-03-18T07:55:30.497Z,6.00
2017-03-18T07:56:31.269Z,4.00
2017-03-18T07:57:32.038Z,4.00
2017-03-18T07:58:32.812Z,4.00
2017-03-18T07:59:33.834Z,5.00
2017-03-18T08:00:34.602Z,4.00
2017-03-18T08:01:35.377Z,5.00
2017-03-18T08:02:36.181Z,5.00
2017-03-18T08:03:37.878Z,4.00
2017-03-18T08:04:38.898Z,5.00
2017-03-18T08:05:39.674Z,6.00
2017-03-18T08:06:40.443Z,3.00
2017-03-18T08:07:41.213Z,5.00
2017-03-18T08:08:41.985Z,5.00
2017-03-18T08:09:43.005Z,6.00
2017-03-18T08:10:43.778Z,7.00
2017-03-18T08:11:44.550Z,5.00
2017-03-18T08:12:45.322Z,4.00
2017-03-18T08:13:46.090Z,5.00
2017-03-18T08:14:47.113Z,5.00
2017-03-18T08:15:47.887Z,6.00
2017-03-18T08:16:48.659Z,4.00
2017-03-18T08:17:49.431Z,5.00
2017-03-18T08:18:50.389Z,4.00
2017-03-18T08:19:51.407Z,3.00
2017-03-18T08:20:52.178Z,5.00
2017-03-18T08:21:52.948Z,5.00
2017-03-18T08:22:53.719Z,5.00
2017-03-18T08:23:54.488Z,6.00
2017-03-18T08:24:55.561Z,4.00
2017-03-18T08:25:56.333Z,6.00
2017-03-18T08:26:57.104Z,5.00
2017-03-18T08:27:57.876Z,3.00
2017-03-18T08:28:58.647Z,4.00
2017-03-18T08:29:59.671Z,4.00
2017-03-18T08:31:00.446Z,5.00
2017-03-18T08:32:01.217Z,5.00
2017-03-18T08:33:01.990Z,6.00
2017-03-18T08:34:02.763Z,5.00
2017-03-18T08:35:03.787Z,7.00
2017-03-18T08:36:04.559Z,7.00
2017-03-18T08:37:05.333Z,8.00
2017-03-18T08:38:06.104Z,6.00
2017-03-18T08:39:06.876Z,6.00
2017-03-18T08:40:07.897Z,8.00
2017-03-18T08:41:08.669Z,6.00
2017-03-18T08:42:09.442Z,6.00
2017-03-18T08:43:10.213Z,6.00
2017-03-18T08:44:10.984Z,6.00
2017-03-18T08:45:12.007Z,4.00
2017-03-18T08:46:12.779Z,6.00
2017-03-18T08:47:13.551Z,5.00
2017-03-18T08:48:14.324Z,6.00
2017-03-18T08:49:15.092Z,5.00
2017-03-18T08:50:16.116Z,5.00
2017-03-18T08:51:16.886Z,4.00
2017-03-18T08:52:17.657Z,4.00
2017-03-18T08:53:18.429Z,6.00
2017-03-18T08:54:19.200Z,4.00
2017-03-18T08:55:20.224Z,4.00
2017-03-18T08:56:20.999Z,4.00
2017-03-18T08:57:21.769Z,4.00
2017-03-18T08:58:22.536Z,4.00
2017-03-18T08:59:23.313Z,104.00
2017-03-18T09:00:24.337Z,19.00
2017-03-18T09:01:25.108Z,5.00
2017-03-18T09:02:25.882Z,11.00
2017-03-18T09:03:26.654Z,4.00
2017-03-18T09:04:27.428Z,4.00
2017-03-18T09:05:28.454Z,4.00
2017-03-18T09:06:29.227Z,4.00
2017-03-18T09:07:30.031Z,5.00
2017-03-18T09:08:30.776Z,5.00
2017-03-18T09:09:31.549Z,4.00
2017-03-18T09:10:32.574Z,3.00
2017-03-18T09:11:33.348Z,4.00
2017-03-18T09:12:34.120Z,3.00
2017-03-18T09:13:34.898Z,4.00
2017-03-18T09:14:35.865Z,4.00
2017-03-18T09:15:36.890Z,3.00
2017-03-18T09:16:37.667Z,4.00
2017-03-18T09:17:38.442Z,5.00
2017-03-18T09:18:39.217Z,4.00
2017-03-18T09:19:39.992Z,6.00
2017-03-18T09:20:41.019Z,4.00
2017-03-18T09:21:41.794Z,4.00
2017-03-18T09:22:42.571Z,5.00
2017-03-18T09:23:43.347Z,5.00
2017-03-18T09:24:44.123Z,4.00
2017-03-18T09:25:45.149Z,5.00
2017-03-18T09:26:45.923Z,4.00
2017-03-18T09:27:46.697Z,4.00
2017-03-18T09:28:47.473Z,6.00
2017-03-18T09:29:48.248Z,7.00
2017-03-18T09:30:49.273Z,6.00
2017-03-18T09:31:50.051Z,6.00
2017-03-18T09:32:51.012Z,6.00
2017-03-18T09:33:51.790Z,5.00
2017-03-18T09:34:52.564Z,6.00
2017-03-18T09:35:53.588Z,5.00
2017-03-18T09:36:54.364Z,6.00
2017-03-18T09:37:55.136Z,6.00
2017-03-18T09:38:55.911Z,6.00
2017-03-18T09:39:56.685Z,6.00
2017-03-18T09:40:57.708Z,6.00
2017-03-18T09:41:58.486Z,6.00
2017-03-18T09:42:59.257Z,6.00
2017-03-18T09:44:00.032Z,4.00
2017-03-18T09:45:00.806Z,5.00
2017-03-18T09:46:01.831Z,5.00
2017-03-18T09:47:02.603Z,5.00
2017-03-18T09:48:03.377Z,4.00
2017-03-18T09:49:04.149Z,4.00
2017-03-18T09:50:04.922Z,3.00
2017-03-18T09:51:05.946Z,3.00
2017-03-18T09:52:06.721Z,3.00
2017-03-18T09:53:07.496Z,3.00
2017-03-18T09:54:08.267Z,3.00
2017-03-18T09:55:09.041Z,3.00
2017-03-18T09:56:10.066Z,3.00
2017-03-18T09:57:10.837Z,3.00
2017-03-18T09:58:11.611Z,2.00
2017-03-18T09:59:12.413Z,3.00
2017-03-18T10:00:13.187Z,2.00
2017-03-18T10:01:14.210Z,3.00
2017-03-18T10:02:14.984Z,3.00
2017-03-18T10:03:15.757Z,3.00
2017-03-18T10:04:16.529Z,3.00
2017-03-18T10:05:17.300Z,3.00
2017-03-18T10:06:18.323Z,3.00
2017-03-18T10:07:19.096Z,2.00
2017-03-18T10:08:19.873Z,3.00
2017-03-18T10:09:20.651Z,2.00
2017-03-18T10:10:21.427Z,3.00
2017-03-18T10:11:22.504Z,3.00
2017-03-18T10:12:23.286Z,2.00
2017-03-18T10:13:24.059Z,2.00
2017-03-18T10:14:24.835Z,2.00
2017-03-18T10:15:25.612Z,4.00
2017-03-18T10:16:26.635Z,2.00
2017-03-18T10:17:27.416Z,2.00
2017-03-18T10:18:28.380Z,2.00
2017-03-18T10:19:29.161Z,2.00
2017-03-18T10:20:29.942Z,2.00
2017-03-18T10:21:31.021Z,2.00
2017-03-18T10:22:31.800Z,2.00
2017-03-18T10:23:32.574Z,2.00
2017-03-18T10:24:33.350Z,2.00
2017-03-18T10:25:34.133Z,2.00
2017-03-18T10:26:35.160Z,2.00
2017-03-18T10:27:35.942Z,2.00
2017-03-18T10:28:36.717Z,2.00
2017-03-18T10:29:37.495Z,2.00
2017-03-18T10:30:38.270Z,2.00
2017-03-18T10:31:39.297Z,2.00
2017-03-18T10:32:40.077Z,2.00
2017-03-18T10:33:40.855Z,2.00
2017-03-18T10:34:41.629Z,2.00
2017-03-18T10:35:42.407Z,3.00
2017-03-18T10:36:43.433Z,2.00
2017-03-18T10:37:44.210Z,3.00
2017-03-18T10:38:44.986Z,3.00
2017-03-18T10:39:45.765Z,2.00
2017-03-18T10:40:46.540Z,4.00
2017-03-18T10:41:47.567Z,3.00
2017-03-18T10:42:48.346Z,2.00
2017-03-18T10:43:49.124Z,2.00
2017-03-18T10:44:49.910Z,2.00
2017-03-18T10:45:50.683Z,2.00
2017-03-18T10:46:51.713Z,3.00
2017-03-18T10:47:52.491Z,2.00
2017-03-18T10:48:53.273Z,2.00
2017-03-18T10:49:54.050Z,3.00
2017-03-18T10:50:54.827Z,2.00
2017-03-18T10:51:55.904Z,2.00
2017-03-18T10:52:56.683Z,3.00
2017-03-18T10:53:57.460Z,2.00
2017-03-18T10:54:58.234Z,2.00
2017-03-18T10:55:59.010Z,2.00
2017-03-18T10:57:00.045Z,2.00
2017-03-18T10:58:00.822Z,2.00
2017-03-18T10:59:01.600Z,2.00
2017-03-18T11:00:02.379Z,3.00
2017-03-18T11:01:03.157Z,2.00
2017-03-18T11:02:04.184Z,2.00
2017-03-18T11:03:04.966Z,2.00
2017-03-18T11:04:05.746Z,2.00
2017-03-18T11:05:06.523Z,2.00
2017-03-18T11:06:07.304Z,2.00
2017-03-18T11:07:08.342Z,2.00
2017-03-18T11:08:09.120Z,2.00
2017-03-18T11:09:09.901Z,2.00
2017-03-18T11:10:10.674Z,2.00
2017-03-18T11:11:11.457Z,2.00
2017-03-18T11:12:12.483Z,2.00
2017-03-18T11:13:13.264Z,2.00
2017-03-18T11:14:14.045Z,2.00
2017-03-18T11:15:14.828Z,2.00
2017-03-18T11:16:15.605Z,2.00
2017-03-18T11:17:16.633Z,2.00
2017-03-18T11:18:17.413Z,2.00
2017-03-18T11:19:18.192Z,2.00
2017-03-18T11:20:18.973Z,2.00
2017-03-18T11:21:19.755Z,2.00
2017-03-18T11:22:20.788Z,2.00
2017-03-18T11:23:21.570Z,2.00
2017-03-18T11:24:22.352Z,2.00
2017-03-18T11:25:23.131Z,2.00
2017-03-18T11:26:23.915Z,2.00
2017-03-18T11:27:24.946Z,2.00
2017-03-18T11:28:25.728Z,2.00
2017-03-18T11:29:26.511Z,1.00
2017-03-18T11:30:27.294Z,1.00
2017-03-18T11:31:28.077Z,2.00
2017-03-18T11:32:29.112Z,3.00
2017-03-18T11:33:29.896Z,2.00
2017-03-18T11:34:30.676Z,2.00
2017-03-18T11:35:31.454Z,2.00
2017-03-18T11:36:32.236Z,3.00
2017-03-18T11:37:33.264Z,2.00
2017-03-18T11:38:34.046Z,2.00
2017-03-18T11:39:34.826Z,2.00
2017-03-18T11:40:35.607Z,3.00
2017-03-18T11:41:36.386Z,3.00
2017-03-18T11:42:37.413Z,2.00
2017-03-18T11:43:38.193Z,3.00
2017-03-18T11:44:38.974Z,2.00
2017-03-18T11:45:39.756Z,3.00
2017-03-18T11:46:40.537Z,2.00
2017-03-18T11:47:41.567Z,2.00
2017-03-18T11:48:42.343Z,3.00
2017-03-18T11:49:43.126Z,3.00
2017-03-18T11:50:43.941Z,2.00
2017-03-18T11:51:44.685Z,2.00
2017-03-18T11:52:45.713Z,3.00
2017-03-18T11:53:46.494Z,3.00
2017-03-18T11:54:47.461Z,2.00
2017-03-18T11:55:48.241Z,2.00
2017-03-18T11:56:49.017Z,2.00
2017-03-18T11:57:50.096Z,2.00
2017-03-18T11:58:50.873Z,2.00
2017-03-18T11:59:51.651Z,2.00
2017-03-18T12:00:52.427Z,2.00
2017-03-18T12:01:53.207Z,2.00
2017-03-18T12:02:54.234Z,2.00
2017-03-18T12:03:55.012Z,3.00
2017-03-18T12:04:55.786Z,2.00
2017-03-18T12:05:56.562Z,2.00
2017-03-18T12:06:57.342Z,2.00
2017-03-18T12:07:58.369Z,3.00
2017-03-18T12:08:59.149Z,3.00
2017-03-18T12:09:59.925Z,3.00
2017-03-18T12:11:00.705Z,3.00
2017-03-18T12:12:01.481Z,2.00
2017-03-18T12:13:02.508Z,2.00
2017-03-18T12:14:03.286Z,2.00
2017-03-18T12:15:04.062Z,2.00
2017-03-18T12:16:04.840Z,2.00
2017-03-18T12:17:05.621Z,2.00
2017-03-18T12:18:06.649Z,2.00
2017-03-18T12:19:07.426Z,2.00
2017-03-18T12:20:08.208Z,2.00
2017-03-18T12:21:08.986Z,3.00
2017-03-18T12:22:09.761Z,3.00
2017-03-18T12:23:10.841Z,2.00
2017-03-18T12:24:11.617Z,2.00
2017-03-18T12:25:12.398Z,2.00
2017-03-18T12:26:13.176Z,2.00
2017-03-18T12:27:13.958Z,3.00
2017-03-18T12:28:14.985Z,2.00
2017-03-18T12:29:15.769Z,2.00
2017-03-18T12:30:16.543Z,2.00
2017-03-18T12:31:17.323Z,2.00
2017-03-18T12:32:18.102Z,2.00
2017-03-18T12:33:19.128Z,3.00
2017-03-18T12:34:19.913Z,3.00
2017-03-18T12:35:20.687Z,3.00
2017-03-18T12:36:21.469Z,2.00
2017-03-18T12:37:22.246Z,2.00
2017-03-18T12:38:23.277Z,2.00
2017-03-18T12:39:24.056Z,3.00
2017-03-18T12:40:24.836Z,3.00
2017-03-18T12:41:25.615Z,3.00
2017-03-18T12:42:26.393Z,3.00
2017-03-18T12:43:27.424Z,2.00
2017-03-18T12:44:28.202Z,2.00
2017-03-18T12:45:29.003Z,3.00
2017-03-18T12:46:29.786Z,4.00
2017-03-18T12:47:30.565Z,2.00
2017-03-18T12:48:31.591Z,3.00
2017-03-18T12:49:32.370Z,3.00
2017-03-18T12:50:33.151Z,2.00
2017-03-18T12:51:33.926Z,3.00
2017-03-18T12:52:34.705Z,2.00
2017-03-18T12:53:35.982Z,3.00
2017-03-18T12:54:36.760Z,2.00
2017-03-18T12:55:37.539Z,3.00
2017-03-18T12:56:38.315Z,4.00
2017-03-18T12:57:39.094Z,3.00
2017-03-18T12:58:40.170Z,3.00
2017-03-18T12:59:40.947Z,3.00
2017-03-18T13:00:41.723Z,2.00
2017-03-18T13:01:42.505Z,3.00
2017-03-18T13:02:43.280Z,3.00
2017-03-18T13:03:44.307Z,2.00
2017-03-18T13:04:45.083Z,2.00
2017-03-18T13:05:45.858Z,2.00
2017-03-18T13:06:46.635Z,2.00
2017-03-18T13:07:47.412Z,2.00
2017-03-18T13:08:48.489Z,3.00
2017-03-18T13:09:49.268Z,2.00
2017-03-18T13:10:50.048Z,2.00
2017-03-18T13:11:50.825Z,2.00
2017-03-18T13:12:51.602Z,2.00
2017-03-18T13:13:52.681Z,3.00
2017-03-18T13:14:53.461Z,3.00
2017-03-18T13:15:54.240Z,3.00
2017-03-18T13:16:55.017Z,3.00
2017-03-18T13:17:55.794Z,2.00
2017-03-18T13:18:56.822Z,3.00
2017-03-18T13:19:57.599Z,4.00
2017-03-18T13:20:58.379Z,3.00
2017-03-18T13:21:59.155Z,3.00
2017-03-18T13:22:59.935Z,3.00
2017-03-18T13:24:00.961Z,3.00
2017-03-18T13:25:01.738Z,3.00